Time;durP1;ratioP1;P1;durP2;ratioP2;P2;SDS_P1;SDS_P2;PMS_P1;PMS_P2;Temp;Humidity;BMP_temperature;BMP_pressure;BME280_temperature;BME280_humidity;BME280_pressure;Samples;Min_cycle;Max_cycle;Signal;HPM_P1;HPM_P2
2022/10/12 00:00:33;;;;;;;6.68;3.33;;;;;;;;;;4974753;28;20049;-71
2022/10/12 00:02:59;;;;;;;10.68;3.10;;;7.80;99.90;;;;;;4991145;28;20046;-71
2022/10/12 00:05:25;;;;;;;9.05;3.33;;;;;;;;;;4974365;28;20053;-71
2022/10/12 00:07:51;;;;;;;6.93;3.17;;;;;;;;;;4991201;28;20051;-71
2022/10/12 00:10:17;;;;;;;6.28;3.25;;;7.90;99.90;;;;;;4991109;28;20050;-71
2022/10/12 00:12:43;;;;;;;7.65;3.25;;;7.80;99.90;;;;;;4992247;28;20057;-71
2022/10/12 00:15:09;;;;;;;6.70;3.33;;;7.80;99.90;;;;;;4974546;28;20046;-71
2022/10/12 00:17:35;;;;;;;6.80;3.72;;;7.70;99.90;;;;;;4991016;28;20034;-71
2022/10/12 00:20:02;;;;;;;7.93;3.20;;;7.80;99.90;;;;;;4974875;28;20042;-71
2022/10/12 00:22:27;;;;;;;5.85;3.30;;;7.60;99.90;;;;;;4992088;28;20121;-71
2022/10/12 00:24:53;;;;;;;10.20;3.50;;;7.60;99.90;;;;;;4994214;28;20535;-71
2022/10/12 00:27:19;;;;;;;7.30;2.83;;;;;;;;;;4994767;28;20038;-71
2022/10/12 00:29:45;;;;;;;8.77;3.08;;;;;;;;;;4994643;28;20074;-71
2022/10/12 00:32:11;;;;;;;8.45;3.35;;;7.70;99.90;;;;;;4994290;28;20046;-70
2022/10/12 00:34:37;;;;;;;8.40;2.70;;;7.70;99.90;;;;;;4977928;28;20038;-71
2022/10/12 00:37:02;;;;;;;5.10;2.83;;;7.60;99.90;;;;;;4994404;28;20038;-71
2022/10/12 00:39:28;;;;;;;11.18;3.10;;;7.70;99.90;;;;;;4995018;28;20035;-71
2022/10/12 00:41:54;;;;;;;6.80;3.00;;;;;;;;;;4994875;28;20393;-70
2022/10/12 00:44:43;;;;;;;10.20;3.08;;;7.50;99.90;;;;;;4994547;28;20034;-71
2022/10/12 00:47:19;;;;;;;12.38;3.85;;;7.60;99.90;;;;;;4994568;28;20094;-71
2022/10/12 00:50:01;;;;;;;9.70;2.72;;;7.50;99.90;;;;;;4995828;28;20571;-70
2022/10/12 00:52:35;;;;;;;12.00;3.15;;;7.60;99.90;;;;;;4994656;28;20096;-70
2022/10/12 00:55:02;;;;;;;7.72;2.50;;;7.50;99.90;;;;;;4994010;28;20038;-70
2022/10/12 00:57:28;;;;;;;5.43;3.35;;;7.30;99.90;;;;;;4994492;28;20049;-70
2022/10/12 01:00:05;;;;;;;4.88;2.88;;;7.70;99.90;;;;;;4995977;28;20038;-70
2022/10/12 01:02:33;;;;;;;6.57;2.85;;;7.50;99.90;;;;;;4996573;28;20053;-71
2022/10/12 01:04:59;;;;;;;5.30;2.80;;;7.60;99.90;;;;;;5002007;28;20089;-71
2022/10/12 01:07:25;;;;;;;7.15;2.78;;;7.70;99.90;;;;;;4994644;28;20038;-70
2022/10/12 01:09:51;;;;;;;8.05;2.97;;;7.60;99.90;;;;;;4995737;28;20713;-71
2022/10/12 01:12:18;;;;;;;7.00;3.67;;;7.60;99.90;;;;;;4994097;28;20042;-70
2022/10/12 01:14:44;;;;;;;9.85;4.13;;;7.50;99.90;;;;;;4994921;28;20178;-71
2022/10/12 01:17:33;;;;;;;5.97;3.67;;;7.60;99.90;;;;;;4993583;28;20087;-70
2022/10/12 01:20:23;;;;;;;9.32;3.72;;;7.50;99.90;;;;;;4993802;28;20039;-70
2022/10/12 01:23:04;;;;;;;7.55;3.25;;;7.50;99.90;;;;;;4993759;28;20034;-70
2022/10/12 01:26:11;;;;;;;7.43;2.88;;;7.50;99.90;;;;;;4993715;28;20042;-73
2022/10/12 01:29:03;;;;;;;7.75;3.30;;;7.60;99.90;;;;;;4994745;28;20073;-72
2022/10/12 01:31:44;;;;;;;11.75;3.28;;;7.60;99.90;;;;;;4993975;28;20113;-73
2022/10/12 01:34:15;;;;;;;9.02;3.72;;;7.60;99.90;;;;;;4991864;28;20121;-73
2022/10/12 01:36:47;;;;;;;10.40;3.75;;;7.60;99.90;;;;;;4994863;28;20039;-73
2022/10/12 01:39:33;;;;;;;5.57;3.28;;;7.90;99.90;;;;;;4993711;28;20038;-71
2022/10/12 01:42:05;;;;;;;9.52;3.78;;;7.80;99.90;;;;;;4993404;28;20522;-70
2022/10/12 01:44:31;;;;;;;5.73;3.73;;;7.80;99.90;;;;;;4993036;28;20046;-70
2022/10/12 01:46:57;;;;;;;8.50;3.55;;;7.70;99.90;;;;;;4993458;28;20068;-70
2022/10/12 01:49:27;;;;;;;11.25;4.10;;;7.80;99.90;;;;;;4992844;28;20048;-70
2022/10/12 01:51:58;;;;;;;10.68;3.70;;;7.80;99.90;;;;;;4993209;28;20416;-71
2022/10/12 01:54:52;;;;;;;12.65;4.07;;;7.80;99.90;;;;;;4977136;28;20042;-71
2022/10/12 01:57:36;;;;;;;7.53;3.70;;;7.70;99.90;;;;;;4977401;28;20496;-71
2022/10/12 02:00:20;;;;;;;8.65;3.80;;;7.90;99.90;;;;;;4993366;28;20124;-71
2022/10/12 02:03:12;;;;;;;7.35;3.78;;;7.90;99.90;;;;;;4993220;28;20038;-71
2022/10/12 02:05:46;;;;;;;11.45;3.83;;;7.80;99.90;;;;;;5010645;22;20024;-73
2022/10/12 02:08:37;;;;;;;8.55;4.13;;;8.00;99.90;;;;;;5038929;28;20081;-73
2022/10/12 02:11:11;;;;;;;9.13;4.50;;;7.90;99.90;;;;;;5038068;28;20048;-74
2022/10/12 02:14:00;;;;;;;7.07;3.35;;;7.80;99.90;;;;;;5055402;28;20123;-74
2022/10/12 02:16:34;;;;;;;9.60;3.78;;;7.70;99.90;;;;;;5063494;28;20482;-74
2022/10/12 02:19:02;;;;;;;6.75;3.80;;;7.70;99.90;;;;;;5053383;28;20072;-73
2022/10/12 02:21:33;;;;;;;9.48;4.30;;;7.90;99.90;;;;;;5053181;28;20070;-73
2022/10/12 02:24:04;;;;;;;4.40;3.47;;;7.90;99.90;;;;;;5021665;28;20048;-73
2022/10/12 02:26:32;;;;;;;10.23;3.60;;;7.90;99.90;;;;;;5032293;28;20045;-73
2022/10/12 02:29:02;;;;;;;11.88;4.03;;;7.80;99.90;;;;;;5035119;28;20097;-73
2022/10/12 02:31:50;;;;;;;8.10;4.22;;;7.70;99.90;;;;;;5035218;28;20063;-73
2022/10/12 02:34:27;;;;;;;6.88;3.58;;;7.70;99.90;;;;;;5034671;28;20120;-73
2022/10/12 02:37:04;;;;;;;17.35;4.47;;;7.90;99.90;;;;;;5052755;28;20532;-74
2022/10/12 02:39:55;;;;;;;7.35;4.35;;;7.70;99.90;;;;;;5025868;28;20037;-74
2022/10/12 02:42:47;;;;;;;6.45;4.03;;;7.70;99.90;;;;;;5015085;28;20037;-73
2022/10/12 02:45:15;;;;;;;10.63;4.53;;;7.90;99.90;;;;;;5014562;28;20041;-73
2022/10/12 02:47:43;;;;;;;12.07;4.75;;;7.80;99.90;;;;;;5015029;28;20037;-74
2022/10/12 02:50:10;;;;;;;13.30;4.75;;;;;;;;;;5032570;28;20661;-73
2022/10/12 02:52:36;;;;;;;10.50;4.25;;;7.70;99.90;;;;;;5032701;28;20415;-73
2022/10/12 02:55:02;;;;;;;5.47;3.88;;;8.00;99.90;;;;;;5027482;28;20045;-73
2022/10/12 02:57:27;;;;;;;9.85;3.75;;;7.70;99.90;;;;;;5017936;28;20072;-73
2022/10/12 02:59:53;;;;;;;12.65;4.97;;;7.70;99.90;;;;;;5034509;28;20440;-73
2022/10/12 03:02:19;;;;;;;12.07;4.45;;;7.70;99.90;;;;;;5034469;28;20118;-73
2022/10/12 03:04:44;;;;;;;10.55;4.47;;;7.80;99.90;;;;;;5051998;28;20120;-74
2022/10/12 03:07:10;;;;;;;8.43;4.13;;;7.80;99.90;;;;;;5018103;28;20037;-73
2022/10/12 03:09:35;;;;;;;19.40;5.15;;;7.80;99.90;;;;;;5017499;28;20041;-73
2022/10/12 03:12:01;;;;;;;15.10;4.57;;;7.80;99.90;;;;;;5014444;28;20044;-74
2022/10/12 03:14:26;;;;;;;13.82;5.95;;;7.90;99.90;;;;;;5042526;28;20033;-73
2022/10/12 03:16:52;;;;;;;11.50;4.20;;;7.90;99.90;;;;;;5052203;28;20033;-73
2022/10/12 03:19:18;;;;;;;10.05;4.40;;;7.70;99.90;;;;;;5034465;28;20032;-73
2022/10/12 03:21:43;;;;;;;8.15;4.00;;;7.80;99.90;;;;;;5052136;28;20037;-73
2022/10/12 03:24:09;;;;;;;10.43;3.92;;;7.60;99.90;;;;;;5032549;28;20561;-74
2022/10/12 03:26:35;;;;;;;16.05;4.25;;;7.70;99.90;;;;;;5049604;28;20033;-74
2022/10/12 03:29:00;;;;;;;9.88;4.20;;;7.80;99.90;;;;;;5023060;28;20503;-73
2022/10/12 03:31:26;;;;;;;7.50;3.63;;;8.10;99.90;;;;;;5032018;28;20033;-73
2022/10/12 03:33:51;;;;;;;11.65;4.43;;;7.80;99.90;;;;;;5021508;28;20103;-73
2022/10/12 03:36:17;;;;;;;12.73;4.20;;;7.70;99.90;;;;;;5051787;28;20033;-73
2022/10/12 03:38:43;;;;;;;12.15;4.00;;;7.80;99.90;;;;;;5051866;28;20029;-73
2022/10/12 03:41:08;;;;;;;10.43;4.38;;;7.80;99.90;;;;;;5032111;28;20049;-73
2022/10/12 03:43:34;;;;;;;9.60;4.43;;;7.80;99.90;;;;;;5033864;28;20080;-73
2022/10/12 03:45:59;;;;;;;8.38;4.20;;;7.80;99.90;;;;;;5033187;28;20124;-73
2022/10/12 03:48:25;;;;;;;8.80;4.07;;;7.90;99.90;;;;;;5034056;28;20082;-73
2022/10/12 03:50:52;;;;;;;10.98;5.38;;;7.70;99.90;;;;;;5033679;28;20041;-74
2022/10/12 03:53:18;;;;;;;6.45;4.45;;;7.90;99.90;;;;;;5046188;28;20634;-73
2022/10/12 03:55:45;;;;;;;9.30;4.10;;;7.80;99.90;;;;;;5013590;28;20038;-73
2022/10/12 03:58:12;;;;;;;9.75;3.97;;;7.80;99.90;;;;;;5014322;28;20069;-73
2022/10/12 04:00:37;;;;;;;12.50;3.67;;;7.70;99.90;;;;;;5014199;28;20037;-73
2022/10/12 04:03:03;;;;;;;8.73;4.22;;;8.70;99.90;;;;;;5013864;28;20041;-73
2022/10/12 04:05:30;;;;;;;9.15;4.05;;;7.70;99.90;;;;;;5031131;28;20091;-73
2022/10/12 04:07:56;;;;;;;12.95;4.10;;;;;;;;;;5013964;28;20041;-73
2022/10/12 04:10:21;;;;;;;8.90;3.80;;;7.80;99.90;;;;;;5031484;28;20179;-73
2022/10/12 04:12:47;;;;;;;11.95;4.53;;;7.90;99.90;;;;;;5031408;28;20116;-73
2022/10/12 04:15:13;;;;;;;8.95;4.28;;;7.70;99.90;;;;;;5031582;28;20117;-73
2022/10/12 04:17:39;;;;;;;10.23;3.88;;;7.70;99.90;;;;;;5013940;28;20045;-73
2022/10/12 04:20:05;;;;;;;15.45;4.63;;;7.70;99.90;;;;;;5014008;28;20558;-73
2022/10/12 04:22:31;;;;;;;9.98;3.70;;;7.70;99.90;;;;;;5031510;28;20044;-73
2022/10/12 04:24:57;;;;;;;10.20;4.07;;;7.60;99.90;;;;;;5013461;28;20411;-73
2022/10/12 04:27:22;;;;;;;10.15;4.20;;;7.60;99.90;;;;;;5031302;28;20096;-73
2022/10/12 04:29:48;;;;;;;11.98;4.38;;;7.70;99.90;;;;;;5031567;28;20044;-73
2022/10/12 04:32:13;;;;;;;11.40;3.70;;;7.70;99.90;;;;;;5032468;28;20373;-73
2022/10/12 04:34:39;;;;;;;11.70;3.90;;;7.60;99.90;;;;;;5031216;28;20037;-73
2022/10/12 04:37:05;;;;;;;8.30;3.72;;;7.80;99.90;;;;;;5031346;28;20069;-73
2022/10/12 04:39:31;;;;;;;11.60;3.83;;;7.80;99.90;;;;;;5021293;28;20037;-73
2022/10/12 04:41:56;;;;;;;12.45;3.88;;;7.70;99.90;;;;;;5033276;28;20045;-73
2022/10/12 04:44:22;;;;;;;9.10;4.25;;;7.60;99.90;;;;;;5033373;28;20076;-73
2022/10/12 04:46:47;;;;;;;13.25;3.97;;;7.70;99.90;;;;;;5031933;28;20541;-73
2022/10/12 04:49:13;;;;;;;14.02;3.65;;;7.60;99.90;;;;;;5031226;28;20073;-72
2022/10/12 04:51:39;;;;;;;12.73;4.13;;;7.70;99.90;;;;;;5013304;28;20100;-73
2022/10/12 04:54:04;;;;;;;10.15;4.78;;;7.60;99.90;;;;;;5013097;28;20033;-73
2022/10/12 04:56:30;;;;;;;9.68;4.07;;;7.60;99.90;;;;;;5013762;28;20129;-73
2022/10/12 04:58:55;;;;;;;12.88;3.90;;;7.70;99.90;;;;;;5013503;28;20037;-73
2022/10/12 05:01:21;;;;;;;13.18;4.97;;;7.60;99.90;;;;;;5031214;28;20396;-73
2022/10/12 05:03:46;;;;;;;7.85;4.55;;;7.70;99.90;;;;;;5032038;28;20029;-73
2022/10/12 05:06:12;;;;;;;12.02;4.28;;;7.70;99.90;;;;;;5038322;28;20128;-73
2022/10/12 05:08:38;;;;;;;11.38;4.45;;;7.70;99.90;;;;;;5052171;28;20411;-73
2022/10/12 05:11:03;;;;;;;9.18;4.38;;;7.60;99.90;;;;;;5054406;28;20041;-73
2022/10/12 05:13:29;;;;;;;10.70;4.40;;;7.70;99.90;;;;;;5036581;28;20040;-74
2022/10/12 05:15:55;;;;;;;17.77;4.65;;;7.70;99.90;;;;;;5054133;28;20087;-74
2022/10/12 05:18:20;;;;;;;13.02;4.35;;;8.60;99.90;;;;;;5020075;28;20037;-73
2022/10/12 05:20:46;;;;;;;12.13;4.20;;;7.70;99.90;;;;;;5052595;28;20045;-73
2022/10/12 05:23:12;;;;;;;11.25;3.88;;;7.70;99.90;;;;;;5036138;28;20072;-73
2022/10/12 05:25:38;;;;;;;11.20;4.32;;;7.60;99.90;;;;;;5051973;28;20033;-73
2022/10/12 05:28:03;;;;;;;13.05;4.30;;;7.60;99.90;;;;;;5025447;28;20099;-74
2022/10/12 05:30:29;;;;;;;11.77;5.75;;;7.60;99.90;;;;;;5030030;28;20436;-73
2022/10/12 05:32:55;;;;;;;11.63;5.03;;;7.50;99.90;;;;;;5017947;28;20034;-78
2022/10/12 05:35:20;;;;;;;17.85;4.68;;;7.50;99.90;;;;;;4999867;28;20034;-72
2022/10/12 05:37:46;;;;;;;16.15;5.70;;;7.40;99.90;;;;;;5029222;28;20447;-72
2022/10/12 05:40:12;;;;;;;15.73;5.40;;;7.50;99.90;;;;;;5053846;28;20083;-73
2022/10/12 05:42:37;;;;;;;19.58;5.43;;;7.60;99.90;;;;;;5036364;28;20033;-72
2022/10/12 05:45:05;;;;;;;15.02;5.13;;;7.30;99.90;;;;;;5035728;28;20036;-72
2022/10/12 05:47:30;;;;;;;14.98;5.75;;;7.40;99.90;;;;;;5035765;28;20043;-72
2022/10/12 05:49:56;;;;;;;13.30;5.85;;;7.50;99.90;;;;;;5053755;28;20426;-72
2022/10/12 05:52:22;;;;;;;12.65;5.65;;;7.40;99.90;;;;;;5035834;28;20048;-72
2022/10/12 05:54:50;;;;;;;12.27;4.88;;;7.40;99.90;;;;;;5034065;28;20483;-73
2022/10/12 05:57:15;;;;;;;11.68;5.00;;;7.30;99.90;;;;;;5041750;28;20064;-72
2022/10/12 05:59:41;;;;;;;11.88;5.07;;;7.50;99.90;;;;;;5033340;28;20068;-72
2022/10/12 06:02:12;;;;;;;11.98;5.95;;;7.40;99.90;;;;;;5032113;28;20559;-72
2022/10/12 06:04:38;;;;;;;15.65;4.75;;;7.30;99.90;;;;;;5022999;28;20076;-72
2022/10/12 06:07:04;;;;;;;13.05;5.40;;;7.30;99.90;;;;;;5020543;28;20111;-72
2022/10/12 06:09:29;;;;;;;9.60;5.07;;;7.20;99.90;;;;;;5003707;28;20040;-72
2022/10/12 06:11:55;;;;;;;14.80;5.30;;;7.10;99.90;;;;;;5045884;28;20345;-72
2022/10/12 06:14:20;;;;;;;17.33;6.28;;;7.40;99.90;;;;;;5024181;28;20580;-73
2022/10/12 06:16:46;;;;;;;13.02;5.63;;;7.10;99.90;;;;;;5030645;28;20041;-72
2022/10/12 06:19:12;;;;;;;19.13;6.93;;;;;;;;;;5043021;28;20041;-76
2022/10/12 06:21:37;;;;;;;24.13;6.75;;;7.20;99.90;;;;;;5044787;28;20396;-72
2022/10/12 06:24:03;;;;;;;17.63;6.50;;;7.30;99.90;;;;;;5024037;28;20044;-73
2022/10/12 06:26:29;;;;;;;12.88;6.07;;;7.20;99.90;;;;;;5041180;28;20677;-74
2022/10/12 06:28:54;;;;;;;13.40;6.07;;;7.10;99.90;;;;;;5020742;28;20044;-72
2022/10/12 06:31:22;;;;;;;12.88;5.85;;;7.20;99.90;;;;;;5014010;28;20629;-72
2022/10/12 06:33:52;;;;;;;15.07;6.15;;;7.30;99.90;;;;;;5019950;28;20071;-72
2022/10/12 06:36:18;;;;;;;16.17;6.35;;;7.30;99.90;;;;;;5050703;28;20073;-72
2022/10/12 06:38:43;;;;;;;16.50;5.70;;;7.30;99.90;;;;;;5019383;28;20211;-72
2022/10/12 06:41:09;;;;;;;11.68;5.95;;;7.20;99.90;;;;;;5012228;28;20041;-72
2022/10/12 06:43:34;;;;;;;19.38;6.38;;;7.40;99.90;;;;;;5032060;28;20473;-71
2022/10/12 06:46:01;;;;;;;11.32;6.15;;;7.30;99.90;;;;;;5014788;28;20449;-73
2022/10/12 06:48:27;;;;;;;16.15;5.60;;;7.40;99.90;;;;;;5007942;28;20128;-73
2022/10/12 06:50:52;;;;;;;18.67;6.47;;;7.40;99.90;;;;;;5014811;28;20491;-73
2022/10/12 06:53:18;;;;;;;11.77;6.30;;;7.50;99.90;;;;;;5014729;28;20045;-72
2022/10/12 06:55:44;;;;;;;13.85;6.55;;;7.60;99.90;;;;;;5017659;28;20072;-72
2022/10/12 06:58:10;;;;;;;15.32;6.30;;;7.60;99.90;;;;;;5034939;28;20037;-72
2022/10/12 07:00:36;;;;;;;17.92;6.60;;;;;;;;;;5042643;28;20509;-71
2022/10/12 07:03:02;;;;;;;11.02;5.88;;;7.60;99.90;;;;;;5014274;28;20049;-72
2022/10/12 07:05:28;;;;;;;14.43;6.57;;;7.80;99.90;;;;;;5042775;28;20115;-71
2022/10/12 07:07:54;;;;;;;16.25;6.28;;;7.80;99.90;;;;;;5047842;28;20064;-72
2022/10/12 07:10:20;;;;;;;13.85;5.75;;;;;;;;;;5035475;28;20468;-72
2022/10/12 07:12:46;;;;;;;14.60;6.57;;;7.70;99.90;;;;;;5021089;28;20399;-72
2022/10/12 07:15:12;;;;;;;13.95;6.00;;;8.00;99.90;;;;;;5019160;28;20037;-70
2022/10/12 07:17:37;;;;;;;12.23;6.78;;;8.00;99.90;;;;;;5004884;28;20033;-72
2022/10/12 07:20:04;;;;;;;17.20;6.38;;;8.20;99.90;;;;;;5039890;28;20164;-72
2022/10/12 07:22:30;;;;;;;15.23;5.80;;;;;;;;;;5032550;28;20097;-72
2022/10/12 07:24:56;;;;;;;12.40;5.07;;;;;;;;;;5040233;28;20128;-72
2022/10/12 07:27:22;;;;;;;13.07;5.60;;;8.00;99.90;;;;;;5033118;28;20128;-72
2022/10/12 07:29:48;;;;;;;14.48;6.43;;;;;;;;;;5033134;28;20114;-72
2022/10/12 07:32:14;;;;;;;14.13;5.85;;;8.10;99.90;;;;;;5050689;28;20076;-72
2022/10/12 07:34:41;;;;;;;9.88;5.43;;;8.20;99.90;;;;;;5031953;28;20550;-72
2022/10/12 07:37:06;;;;;;;10.07;5.40;;;8.20;99.90;;;;;;5013318;28;20042;-72
2022/10/12 07:39:32;;;;;;;16.55;5.57;;;8.30;99.90;;;;;;5016070;28;20059;-72
2022/10/12 07:41:58;;;;;;;17.35;5.85;;;8.30;99.90;;;;;;5041447;28;20044;-72
2022/10/12 07:44:23;;;;;;;13.60;6.03;;;8.30;99.90;;;;;;5037660;28;20044;-72
2022/10/12 07:46:49;;;;;;;16.70;5.65;;;8.30;99.90;;;;;;5025222;28;20052;-72
2022/10/12 07:49:15;;;;;;;10.60;5.72;;;8.50;99.90;;;;;;5013822;28;20045;-72
2022/10/12 07:51:41;;;;;;;11.25;5.57;;;8.60;99.90;;;;;;5022665;28;20065;-72
2022/10/12 07:54:07;;;;;;;10.52;5.47;;;8.70;99.90;;;;;;5022659;28;20087;-73
2022/10/12 07:56:33;;;;;;;13.18;5.80;;;8.70;99.90;;;;;;5017047;28;20038;-73
2022/10/12 07:58:59;;;;;;;14.13;6.00;;;8.90;99.90;;;;;;5030880;28;20099;-73
2022/10/12 08:01:28;;;;;;;21.42;6.10;;;8.80;99.90;;;;;;5041564;28;20491;-72
2022/10/12 08:03:55;;;;;;;14.60;5.22;;;9.10;99.90;;;;;;4997415;28;20129;-76
2022/10/12 08:06:22;;;;;;;18.05;5.88;;;9.10;99.90;;;;;;5024649;28;20056;-73
2022/10/12 08:08:49;;;;;;;13.15;5.45;;;9.20;99.90;;;;;;5012453;28;20042;-73
2022/10/12 08:11:15;;;;;;;11.27;5.45;;;9.30;99.90;;;;;;5012648;28;20088;-73
2022/10/12 08:13:41;;;;;;;12.55;4.47;;;9.40;99.90;;;;;;5012895;28;20124;-72
2022/10/12 08:16:13;;;;;;;13.05;4.55;;;9.30;99.90;;;;;;5019971;28;20125;-73
2022/10/12 08:18:39;;;;;;;15.10;5.70;;;9.20;99.90;;;;;;5012430;28;20081;-73
2022/10/12 08:21:07;;;;;;;12.35;4.93;;;9.30;99.90;;;;;;5016026;28;20076;-73
2022/10/12 08:23:34;;;;;;;12.80;4.28;;;9.40;99.90;;;;;;5019923;28;20041;-73
2022/10/12 08:26:00;;;;;;;16.55;4.85;;;9.60;99.90;;;;;;5026448;28;20037;-73
2022/10/12 08:28:26;;;;;;;13.93;5.25;;;9.60;99.90;;;;;;5020274;28;20261;-73
2022/10/12 08:30:52;;;;;;;17.02;5.68;;;9.70;99.90;;;;;;5035635;28;20045;-73
2022/10/12 08:33:18;;;;;;;12.85;4.68;;;9.90;99.90;;;;;;5022759;28;20048;-72
2022/10/12 08:35:44;;;;;;;18.35;5.05;;;10.20;99.90;;;;;;5004750;28;20034;-72
2022/10/12 08:38:11;;;;;;;15.38;5.00;;;10.30;99.90;;;;;;5031026;28;20033;-74
2022/10/12 08:40:59;;;;;;;14.80;5.97;;;10.30;99.90;;;;;;5012492;28;20037;-75
2022/10/12 08:43:46;;;;;;;18.83;5.57;;;10.30;99.90;;;;;;5011408;28;20099;-75
2022/10/12 08:46:12;;;;;;;18.80;6.18;;;10.30;99.90;;;;;;5027450;28;20064;-73
2022/10/12 08:48:58;;;;;;;15.52;5.35;;;10.50;99.90;;;;;;5047336;28;20036;-73
2022/10/12 08:51:28;;;;;;;13.38;5.60;;;10.30;99.90;;;;;;5054210;28;20037;-73
2022/10/12 08:54:04;;;;;;;11.45;4.13;;;10.60;99.90;;;;;;5025914;28;20041;-71
2022/10/12 08:56:29;;;;;;;19.95;5.43;;;10.70;99.90;;;;;;5029180;28;20033;-72
2022/10/12 08:58:55;;;;;;;14.80;4.07;;;10.80;99.90;;;;;;5025330;28;20036;-73
2022/10/12 09:01:27;;;;;;;11.82;4.78;;;10.90;99.90;;;;;;5043283;28;20049;-73
2022/10/12 09:04:16;;;;;;;13.30;4.32;;;11.00;99.90;;;;;;5016323;28;20041;-72
2022/10/12 09:06:56;;;;;;;18.75;4.28;;;11.30;99.90;;;;;;5025418;28;20449;-73
2022/10/12 09:09:24;;;;;;;9.38;3.45;;;11.20;99.90;;;;;;5053979;28;20120;-73
2022/10/12 09:12:17;;;;;;;12.80;3.58;;;11.30;99.90;;;;;;5029597;28;20037;-73
2022/10/12 09:14:45;;;;;;;10.55;3.70;;;11.30;99.90;;;;;;5032292;28;20038;-73
2022/10/12 09:17:25;;;;;;;21.40;4.43;;;11.40;99.90;;;;;;5034333;28;20038;-73
2022/10/12 09:20:06;;;;;;;10.65;3.83;;;11.60;99.90;;;;;;5046437;28;20037;-73
2022/10/12 09:22:34;;;;;;;16.00;4.03;;;11.60;99.90;;;;;;5047009;28;20047;-73
2022/10/12 09:25:01;;;;;;;14.95;4.57;;;11.80;99.90;;;;;;5024761;28;20064;-73
2022/10/12 09:27:29;;;;;;;14.23;4.38;;;11.90;99.90;;;;;;5015788;28;20425;-73
2022/10/12 09:29:59;;;;;;;15.40;4.18;;;12.20;99.90;;;;;;5035522;28;20043;-72
2022/10/12 09:32:45;;;;;;;11.18;3.88;;;12.00;99.90;;;;;;5029821;28;20033;-73
2022/10/12 09:35:13;;;;;;;10.18;3.67;;;12.20;99.90;;;;;;5021417;28;20091;-73
2022/10/12 09:37:38;;;;;;;10.52;3.60;;;12.30;99.90;;;;;;5023601;28;20037;-73
2022/10/12 09:40:06;;;;;;;13.07;4.15;;;12.30;99.90;;;;;;5030531;28;20041;-73
2022/10/12 09:42:33;;;;;;;16.08;3.53;;;12.40;99.90;;;;;;5024076;28;20072;-73
2022/10/12 09:45:11;;;;;;;12.07;3.55;;;12.50;99.90;;;;;;5036306;28;20052;-73
2022/10/12 09:47:36;;;;;;;8.32;3.15;;;12.70;99.90;;;;;;5031641;28;20048;-73
2022/10/12 09:50:06;;;;;;;14.57;3.72;;;12.50;99.90;;;;;;5012273;28;20037;-73
2022/10/12 09:52:34;;;;;;;14.85;4.35;;;12.80;99.90;;;;;;5033326;28;20041;-73
2022/10/12 09:55:04;;;;;;;16.30;4.88;;;12.80;99.90;;;;;;5014542;28;20042;-73
2022/10/12 09:57:34;;;;;;;14.48;3.80;;;12.90;99.90;;;;;;5029256;28;20423;-73
2022/10/12 10:00:05;;;;;;;13.55;4.10;;;12.80;99.90;;;;;;5035140;28;20037;-73
2022/10/12 10:02:31;;;;;;;13.93;3.97;;;13.00;99.90;;;;;;5015716;28;20395;-73
2022/10/12 10:05:23;;;;;;;10.60;3.45;;;13.00;99.90;;;;;;4998258;28;20029;-73
2022/10/12 10:07:49;;;;;;;9.73;3.15;;;13.40;99.90;;;;;;5015452;28;20128;-73
2022/10/12 10:10:20;;;;;;;12.35;3.05;;;13.10;99.90;;;;;;5017889;28;20117;-73
2022/10/12 10:12:51;;;;;;;12.40;3.38;;;13.20;99.90;;;;;;5032515;28;20048;-73
2022/10/12 10:15:30;;;;;;;14.75;3.90;;;13.50;99.90;;;;;;5034722;28;20036;-73
2022/10/12 10:17:59;;;;;;;11.98;3.42;;;13.50;99.90;;;;;;5023704;28;20068;-73
2022/10/12 10:20:49;;;;;;;14.50;3.15;;;13.60;99.90;;;;;;5015130;28;20038;-73
2022/10/12 10:23:30;;;;;;;12.77;3.67;;;14.30;99.90;;;;;;5015308;28;20037;-73
2022/10/12 10:26:06;;;;;;;10.60;3.05;;;13.70;99.90;;;;;;5021761;28;20095;-72
2022/10/12 10:28:34;;;;;;;14.73;3.35;;;14.20;99.90;;;;;;5030723;28;20033;-73
2022/10/12 10:31:02;;;;;;;9.75;2.85;;;14.60;99.90;;;;;;5034732;28;20107;-73
2022/10/12 10:34:17;;;;;;;13.20;3.13;;;14.50;99.90;;;;;;5041264;28;20191;-72
2022/10/12 10:37:04;;;;;;;11.02;2.88;;;13.80;99.90;;;;;;5037146;28;20028;-73
2022/10/12 10:39:52;;;;;;;8.65;2.60;;;13.80;99.90;;;;;;5048627;28;20112;-71
2022/10/12 10:42:36;;;;;;;11.98;3.42;;;14.00;99.90;;;;;;5045702;28;20044;-74
2022/10/12 10:45:26;;;;;;;10.82;3.00;;;13.90;99.90;;;;;;5043120;28;20039;-73
2022/10/12 10:48:16;;;;;;;10.55;2.70;;;14.00;99.90;;;;;;5050948;28;20056;-74
2022/10/12 10:50:55;;;;;;;14.60;2.92;;;15.00;99.90;;;;;;5014599;28;20041;-74
2022/10/12 10:53:23;;;;;;;13.88;2.78;;;14.10;99.90;;;;;;5019803;28;20042;-74
2022/10/12 10:55:57;;;;;;;7.22;2.25;;;14.10;99.90;;;;;;5016905;28;20052;-74
2022/10/12 10:58:45;;;;;;;10.60;2.70;;;15.20;99.90;;;;;;5031150;28;20092;-74
2022/10/12 11:01:22;;;;;;;13.00;3.50;;;14.10;99.90;;;;;;5015213;28;20059;-74
2022/10/12 11:03:56;;;;;;;11.77;3.33;;;14.30;99.90;;;;;;5014716;28;20049;-73
2022/10/12 11:06:41;;;;;;;10.32;2.92;;;14.20;99.90;;;;;;5014142;28;20114;-73
2022/10/12 11:09:20;;;;;;;11.23;2.63;;;14.20;99.90;;;;;;5000354;28;20049;-74
2022/10/12 11:11:56;;;;;;;12.23;3.10;;;14.40;99.90;;;;;;5032882;28;20040;-73
2022/10/12 11:14:29;;;;;;;10.85;2.90;;;15.20;99.90;;;;;;5014091;28;20407;-73
2022/10/12 11:17:00;;;;;;;11.02;3.67;;;14.60;99.90;;;;;;5014041;28;20061;-73
2022/10/12 11:19:43;;;;;;;8.32;2.70;;;14.50;99.90;;;;;;5032792;28;20682;-72
2022/10/12 11:22:29;;;;;;;16.55;3.72;;;14.70;99.90;;;;;;5019534;28;20045;-74
2022/10/12 11:25:23;;;;;;;11.48;2.88;;;14.70;99.90;;;;;;5016808;28;20056;-74
2022/10/12 11:27:49;;;;;;;7.47;3.10;;;14.70;99.90;;;;;;5023644;28;20052;-74
2022/10/12 11:30:18;;;;;;;13.27;3.53;;;15.50;99.90;;;;;;5021541;28;20036;-72
2022/10/12 11:32:54;;;;;;;10.48;3.00;;;14.90;99.90;;;;;;5023136;28;20037;-72
2022/10/12 11:35:26;;;;;;;13.95;3.67;;;14.90;99.90;;;;;;5006737;28;20047;-72
2022/10/12 11:37:56;;;;;;;8.95;2.50;;;14.90;99.90;;;;;;5013660;28;20671;-73
2022/10/12 11:40:32;;;;;;;10.95;2.95;;;14.90;99.90;;;;;;5031564;28;20038;-73
2022/10/12 11:43:03;;;;;;;14.95;3.95;;;14.80;99.90;;;;;;5013134;28;20044;-74
2022/10/12 11:45:34;;;;;;;15.15;3.35;;;14.80;99.90;;;;;;5013599;28;20386;-74
2022/10/12 11:48:06;;;;;;;13.60;3.72;;;14.80;99.90;;;;;;5013552;28;20144;-74
2022/10/12 11:50:38;;;;;;;9.38;3.08;;;15.10;99.90;;;;;;5034402;28;20043;-73
2022/10/12 11:53:24;;;;;;;17.98;2.95;;;15.40;99.90;;;;;;5022081;28;20029;-73
2022/10/12 11:55:50;;;;;;;14.70;3.08;;;15.20;99.90;;;;;;5045681;28;20037;-73
2022/10/12 11:58:25;;;;;;;7.07;2.38;;;15.20;99.90;;;;;;5033708;28;20039;-73
2022/10/12 12:01:19;;;;;;;9.65;2.40;;;15.10;99.90;;;;;;5005934;28;20071;-73
2022/10/12 12:03:45;;;;;;;8.35;2.70;;;15.10;99.90;;;;;;5013446;28;20049;-72
2022/10/12 12:06:49;;;;;;;9.73;2.65;;;15.00;99.90;;;;;;5033569;28;20098;-73
2022/10/12 12:09:34;;;;;;;14.93;2.60;;;15.00;99.90;;;;;;5034162;28;20172;-73
2022/10/12 12:12:27;;;;;;;10.50;2.58;;;15.00;99.90;;;;;;5013624;28;20042;-73
2022/10/12 12:14:53;;;;;;;10.38;2.50;;;15.20;99.90;;;;;;5012261;28;20049;-73
2022/10/12 12:17:18;;;;;;;9.68;3.25;;;15.10;99.90;;;;;;5006202;28;20095;-73
2022/10/12 12:19:46;;;;;;;13.35;3.53;;;15.10;99.90;;;;;;5026613;28;20091;-73
2022/10/12 12:22:14;;;;;;;10.48;2.13;;;15.80;99.90;;;;;;5034426;28;20120;-73
2022/10/12 12:24:49;;;;;;;8.88;2.30;;;15.10;99.90;;;;;;5017014;28;20045;-74
2022/10/12 12:27:30;;;;;;;12.43;3.67;;;15.50;99.90;;;;;;5016880;28;20052;-73
2022/10/12 12:29:58;;;;;;;13.13;2.72;;;15.30;99.90;;;;;;5034771;28;20045;-73
2022/10/12 12:32:25;;;;;;;8.45;2.35;;;15.60;99.90;;;;;;5032244;28;20041;-73
2022/10/12 12:34:57;;;;;;;12.85;2.70;;;15.30;99.90;;;;;;5054831;28;20493;-72
2022/10/12 12:37:27;;;;;;;10.40;2.38;;;15.30;99.90;;;;;;5054095;28;20029;-73
2022/10/12 12:39:56;;;;;;;11.00;2.88;;;15.30;99.90;;;;;;5036900;28;20045;-73
2022/10/12 12:42:25;;;;;;;10.35;2.67;;;15.40;99.90;;;;;;5052454;28;20123;-73
2022/10/12 12:44:50;;;;;;;12.75;3.80;;;15.20;99.90;;;;;;5019814;28;20495;-73
2022/10/12 12:47:20;;;;;;;11.60;3.15;;;15.20;99.90;;;;;;5016633;28;20048;-73
2022/10/12 12:49:55;;;;;;;8.18;2.15;;;15.80;99.90;;;;;;5021707;28;20037;-72
2022/10/12 12:52:36;;;;;;;8.82;3.17;;;16.00;99.90;;;;;;5041252;28;20041;-73
2022/10/12 12:55:33;;;;;;;8.55;2.30;;;15.00;99.90;;;;;;5015975;28;20509;-73
2022/10/12 12:58:32;;;;;;;11.23;2.65;;;15.90;99.90;;;;;;5025888;28;20060;-74
2022/10/12 13:01:35;;;;;;;10.27;3.05;;;15.40;99.90;;;;;;5035288;28;20068;-73
2022/10/12 13:04:29;;;;;;;12.85;3.33;;;15.30;99.90;;;;;;5036534;28;20108;-73
2022/10/12 13:07:08;;;;;;;7.05;2.20;;;15.40;99.90;;;;;;5033888;28;20045;-73
2022/10/12 13:09:42;;;;;;;8.27;2.28;;;15.40;99.90;;;;;;5033721;28;20045;-73